Time;durP1;ratioP1;P1;durP2;ratioP2;P2;SDS_P1;SDS_P2;PMS_P1;PMS_P2;Temp;Humidity;BMP_temperature;BMP_pressure;BME280_temperature;BME280_humidity;BME280_pressure;Samples;Min_cycle;Max_cycle;Signal;HPM_P1;HPM_P2
2021/08/21 00:01:11;;;;;;;205.00;57.53;;;16.70;99.90;;;;;;5095245;28;20439;-72
2021/08/21 00:03:41;;;;;;;161.07;56.50;;;16.70;99.90;;;;;;5094905;28;20439;-72
2021/08/21 00:06:09;;;;;;;175.57;57.10;;;16.70;99.90;;;;;;5095204;28;21005;-72
2021/08/21 00:08:37;;;;;;;192.87;51.63;;;16.70;99.90;;;;;;5094900;28;20471;-72
2021/08/21 00:11:05;;;;;;;136.47;49.47;;;16.70;99.90;;;;;;5094855;28;20970;-72
2021/08/21 00:13:34;;;;;;;18.75;17.25;;;16.70;99.90;;;;;;5094179;28;20439;-72
2021/08/21 00:16:02;;;;;;;151.53;47.93;;;16.80;99.90;;;;;;5094758;28;20650;-72
2021/08/21 00:18:31;;;;;;;18.02;16.52;;;16.80;99.90;;;;;;5094046;28;20799;-72
2021/08/21 00:21:00;;;;;;;110.20;47.90;;;16.80;99.90;;;;;;5095154;28;20206;-72
2021/08/21 00:23:28;;;;;;;207.50;47.97;;;16.80;99.90;;;;;;5093177;28;20456;-72
2021/08/21 00:25:56;;;;;;;178.00;55.30;;;16.70;99.90;;;;;;5100036;28;20990;-72
2021/08/21 00:28:24;;;;;;;190.20;53.20;;;16.70;99.90;;;;;;5094466;28;20426;-72
2021/08/21 00:30:52;;;;;;;162.90;53.90;;;16.60;99.90;;;;;;5093289;28;20423;-72
2021/08/21 00:33:22;;;;;;;175.90;47.47;;;16.60;99.90;;;;;;5092711;28;20979;-72
2021/08/21 00:35:50;;;;;;;184.47;55.00;;;16.60;99.90;;;;;;5094222;28;20417;-72
2021/08/21 00:38:20;;;;;;;161.67;48.87;;;16.50;99.90;;;;;;5093132;28;20472;-72
2021/08/21 00:40:48;;;;;;;127.27;47.63;;;16.50;99.90;;;;;;5093059;28;20445;-72
2021/08/21 00:43:17;;;;;;;138.47;49.20;;;16.50;99.90;;;;;;5094282;28;20822;-72
2021/08/21 00:45:45;;;;;;;145.87;48.17;;;16.50;99.90;;;;;;5094337;28;20455;-72
2021/08/21 00:48:13;;;;;;;146.97;49.80;;;16.40;99.90;;;;;;5109817;28;20449;-70
2021/08/21 00:50:42;;;;;;;165.23;54.30;;;16.40;99.90;;;;;;5092625;28;20783;-70
2021/08/21 00:53:10;;;;;;;152.40;48.60;;;16.40;99.90;;;;;;5092707;28;20447;-70
2021/08/21 00:55:40;;;;;;;16.60;15.20;;;16.40;99.90;;;;;;5088663;28;20444;-70
2021/08/21 00:58:08;;;;;;;161.63;44.87;;;16.40;99.90;;;;;;5073639;28;20528;-70
2021/08/21 01:00:36;;;;;;;16.27;15.07;;;16.40;99.90;;;;;;5071891;28;20434;-72
2021/08/21 01:03:06;;;;;;;116.53;42.73;;;16.50;99.90;;;;;;5072578;28;20273;-72
2021/08/21 01:05:34;;;;;;;156.83;48.20;;;16.50;99.90;;;;;;5073752;28;20963;-72
2021/08/21 01:08:02;;;;;;;156.33;49.43;;;16.40;99.90;;;;;;5089749;28;20511;-72
2021/08/21 01:10:35;;;;;;;122.33;48.80;;;16.40;99.90;;;;;;5090029;28;20403;-72
2021/08/21 01:13:05;;;;;;;120.03;48.80;;;16.40;99.90;;;;;;5081943;28;20464;-72
2021/08/21 01:15:33;;;;;;;148.63;46.10;;;16.40;99.90;;;;;;5092090;28;20419;-72
2021/08/21 01:18:07;;;;;;;131.33;50.60;;;16.40;99.90;;;;;;5092524;28;20427;-72
2021/08/21 01:20:36;;;;;;;151.83;49.47;;;16.40;99.90;;;;;;5092595;28;20452;-72
2021/08/21 01:23:07;;;;;;;126.07;53.10;;;16.30;99.90;;;;;;5092255;28;20472;-72
2021/08/21 01:25:51;;;;;;;145.00;53.90;;;16.30;99.90;;;;;;5072136;28;20493;-72
2021/08/21 01:28:23;;;;;;;136.33;46.37;;;16.30;99.90;;;;;;5074936;28;20449;-72
2021/08/21 01:31:04;;;;;;;157.27;52.17;;;16.30;99.90;;;;;;5092315;28;20956;-72
2021/08/21 01:33:40;;;;;;;144.03;49.37;;;16.30;99.90;;;;;;5092507;28;20787;-72
2021/08/21 01:36:09;;;;;;;161.93;50.13;;;16.30;99.90;;;;;;5092200;28;20483;-72
2021/08/21 01:38:56;;;;;;;18.60;17.13;;;16.30;99.90;;;;;;5089451;28;20452;-72
2021/08/21 01:41:43;;;;;;;119.23;48.00;;;16.30;99.90;;;;;;5093586;28;20201;-70
2021/08/21 01:44:18;;;;;;;17.92;16.55;;;16.30;99.90;;;;;;5091456;28;20415;-70
2021/08/21 01:46:48;;;;;;;147.13;43.37;;;16.40;99.90;;;;;;5091776;28;20738;-70
2021/08/21 01:49:18;;;;;;;111.50;39.80;;;16.30;99.90;;;;;;5092380;28;20937;-69
2021/08/21 01:51:50;;;;;;;122.90;46.47;;;16.30;99.90;;;;;;5091908;28;20448;-70
2021/08/21 01:54:24;;;;;;;142.47;45.93;;;16.20;99.90;;;;;;5109122;28;20513;-70
2021/08/21 01:56:53;;;;;;;126.90;45.40;;;16.20;99.90;;;;;;5108910;28;20411;-70
2021/08/21 01:59:43;;;;;;;129.77;45.07;;;16.20;99.90;;;;;;5093497;28;20801;-70
2021/08/21 02:02:17;;;;;;;140.37;46.27;;;16.20;99.90;;;;;;5090608;28;20515;-71
2021/08/21 02:05:09;;;;;;;111.83;41.40;;;16.10;99.90;;;;;;5089945;28;20431;-70
2021/08/21 02:07:37;;;;;;;102.93;44.53;;;16.10;99.90;;;;;;5091927;28;20839;-70
2021/08/21 02:10:07;;;;;;;113.03;46.90;;;16.10;99.90;;;;;;5091854;28;20472;-70
2021/08/21 02:12:35;;;;;;;109.47;44.80;;;16.10;99.90;;;;;;5093544;28;20958;-70
2021/08/21 02:15:08;;;;;;;146.73;48.97;;;16.10;99.90;;;;;;5092811;28;20416;-70
2021/08/21 02:17:37;;;;;;;130.93;42.93;;;16.10;99.90;;;;;;5092021;28;20415;-70
2021/08/21 02:20:21;;;;;;;181.97;46.87;;;16.10;99.90;;;;;;5092815;28;20437;-70
2021/08/21 02:22:49;;;;;;;14.82;13.32;;;16.10;99.90;;;;;;5090373;28;20509;-70
2021/08/21 02:25:18;;;;;;;82.70;37.10;;;16.20;99.90;;;;;;5092659;28;20211;-70
2021/08/21 02:27:56;;;;;;;14.47;13.17;;;16.20;99.90;;;;;;5090927;28;20437;-70
2021/08/21 02:30:27;;;;;;;93.23;34.63;;;16.20;99.90;;;;;;5093436;28;20507;-70
2021/08/21 02:32:55;;;;;;;77.53;36.53;;;16.20;99.90;;;;;;5091587;28;20559;-70
2021/08/21 02:35:23;;;;;;;83.87;38.23;;;16.20;99.90;;;;;;5091597;28;20532;-70
2021/08/21 02:37:51;;;;;;;147.67;40.67;;;16.20;99.90;;;;;;5091519;28;20452;-70
2021/08/21 02:40:20;;;;;;;135.57;42.17;;;16.20;99.90;;;;;;5092805;28;20840;-70
2021/08/21 02:42:49;;;;;;;102.60;42.67;;;16.20;99.90;;;;;;5092731;28;20430;-70
2021/08/21 02:45:18;;;;;;;101.37;41.40;;;16.10;99.90;;;;;;5092944;28;20446;-70
2021/08/21 02:47:47;;;;;;;133.03;39.50;;;16.10;99.90;;;;;;5092376;28;20468;-70
2021/08/21 02:50:16;;;;;;;112.00;41.37;;;16.10;99.90;;;;;;5091400;28;20506;-70
2021/08/21 02:52:44;;;;;;;120.07;46.00;;;16.10;99.90;;;;;;5108256;28;20905;-70
2021/08/21 02:55:12;;;;;;;136.03;38.97;;;16.10;99.90;;;;;;5091419;28;20452;-70
2021/08/21 02:57:47;;;;;;;117.47;41.77;;;16.10;99.90;;;;;;5092808;28;20410;-70
2021/08/21 03:00:17;;;;;;;116.57;38.17;;;16.10;99.90;;;;;;5095416;28;20463;-71
2021/08/21 03:02:52;;;;;;;110.30;41.47;;;16.10;99.90;;;;;;5095002;28;20467;-71
2021/08/21 03:05:20;;;;;;;77.20;32.65;;;16.10;99.90;;;;;;5094799;28;20432;-70
2021/08/21 03:07:48;;;;;;;138.23;41.63;;;16.10;99.90;;;;;;5096162;28;20209;-70
2021/08/21 03:10:17;;;;;;;149.83;41.63;;;16.10;99.90;;;;;;5094862;28;20437;-70
2021/08/21 03:12:56;;;;;;;109.30;43.40;;;16.10;99.90;;;;;;5094853;28;20509;-70
2021/08/21 03:15:26;;;;;;;103.93;38.00;;;16.10;99.90;;;;;;5094717;28;20864;-70
2021/08/21 03:17:57;;;;;;;106.80;42.13;;;16.10;99.90;;;;;;5094698;28;20451;-70
2021/08/21 03:20:26;;;;;;;111.30;43.30;;;16.10;99.90;;;;;;5092328;28;20423;-70
2021/08/21 03:22:55;;;;;;;104.73;43.30;;;16.10;99.90;;;;;;5094573;28;20478;-70
2021/08/21 03:25:26;;;;;;;107.33;43.83;;;16.00;99.90;;;;;;5094505;28;20423;-70
2021/08/21 03:27:55;;;;;;;111.40;45.50;;;16.00;99.90;;;;;;5094458;28;20475;-70
2021/08/21 03:30:24;;;;;;;91.53;41.50;;;16.00;99.90;;;;;;5094729;28;20513;-70
2021/08/21 03:33:13;;;;;;;97.90;41.97;;;16.00;99.90;;;;;;5094902;28;20447;-70
2021/08/21 03:35:43;;;;;;;91.60;43.70;;;16.00;99.90;;;;;;5094416;28;20466;-70
2021/08/21 03:38:12;;;;;;;64.63;40.60;;;16.00;99.90;;;;;;5094362;28;20967;-70
2021/08/21 03:40:53;;;;;;;119.27;45.23;;;16.00;99.90;;;;;;5094319;28;20407;-70
2021/08/21 03:43:21;;;;;;;118.20;47.37;;;16.00;99.90;;;;;;5094168;28;20867;-70
2021/08/21 03:45:49;;;;;;;113.67;46.73;;;16.00;99.90;;;;;;5095815;28;20462;-70
2021/08/21 03:48:20;;;;;;;107.30;43.40;;;16.00;99.90;;;;;;5094095;28;20438;-70
2021/08/21 03:50:49;;;;;;;16.52;14.82;;;16.00;99.90;;;;;;5091140;28;21017;-70
2021/08/21 03:53:19;;;;;;;96.10;36.83;;;16.00;99.90;;;;;;5093861;28;20226;-70
2021/08/21 03:56:13;;;;;;;17.30;15.50;;;16.00;99.90;;;;;;5092209;28;20416;-70
2021/08/21 03:58:48;;;;;;;146.60;39.77;;;16.10;99.90;;;;;;5094277;28;20194;-70
2021/08/21 04:01:17;;;;;;;122.37;38.57;;;16.00;99.90;;;;;;5094059;28;20861;-71
2021/08/21 04:03:49;;;;;;;125.53;44.47;;;16.00;99.90;;;;;;5093919;28;20450;-71
2021/08/21 04:06:20;;;;;;;104.43;41.83;;;16.00;99.90;;;;;;5094062;28;20427;-70
2021/08/21 04:08:48;;;;;;;88.70;40.87;;;16.00;99.90;;;;;;5093048;28;20933;-71
2021/08/21 04:11:27;;;;;;;98.03;41.40;;;15.90;99.90;;;;;;5110679;28;20423;-71
2021/08/21 04:14:21;;;;;;;87.77;39.67;;;15.90;99.90;;;;;;5091673;28;20468;-71
2021/08/21 04:16:49;;;;;;;77.83;38.13;;;15.90;99.90;;;;;;5093548;28;20470;-71
2021/08/21 04:19:21;;;;;;;73.77;43.37;;;15.90;99.90;;;;;;5093544;28;20585;-71
2021/08/21 04:21:53;;;;;;;98.33;41.53;;;15.90;99.90;;;;;;5093582;28;20437;-71
2021/08/21 04:24:41;;;;;;;74.23;35.17;;;15.90;99.90;;;;;;5094344;28;20427;-71
2021/08/21 04:27:11;;;;;;;72.07;36.33;;;15.90;99.90;;;;;;5093289;28;20453;-71
2021/08/21 04:29:40;;;;;;;92.43;36.17;;;15.90;99.90;;;;;;5110338;28;20499;-71
2021/08/21 04:32:12;;;;;;;81.37;40.37;;;15.90;99.90;;;;;;5093267;28;20834;-71
2021/08/21 04:34:42;;;;;;;15.52;13.82;;;15.90;99.90;;;;;;5090169;28;20942;-71
2021/08/21 04:37:14;;;;;;;102.93;33.17;;;15.90;99.90;;;;;;5093156;28;20252;-71
2021/08/21 04:39:43;;;;;;;15.30;13.70;;;15.90;99.90;;;;;;5092497;28;20437;-71
2021/08/21 04:42:18;;;;;;;75.07;31.97;;;16.00;99.90;;;;;;5093106;28;20432;-71
2021/08/21 04:44:47;;;;;;;77.93;35.43;;;15.90;99.90;;;;;;5093076;28;20451;-71
2021/08/21 04:47:15;;;;;;;130.93;37.20;;;15.90;99.90;;;;;;5093020;28;20440;-71
2021/08/21 04:49:47;;;;;;;124.53;33.43;;;15.90;99.90;;;;;;5093037;28;20437;-71
2021/08/21 04:52:16;;;;;;;82.30;36.07;;;15.90;99.90;;;;;;5093131;28;20844;-70
2021/08/21 04:54:44;;;;;;;99.83;34.20;;;15.90;99.90;;;;;;5092852;28;20464;-71
2021/08/21 04:57:15;;;;;;;136.67;38.17;;;15.90;99.90;;;;;;5092311;28;20462;-70
2021/08/21 04:59:46;;;;;;;98.97;31.60;;;15.90;99.90;;;;;;5092803;28;20440;-70
2021/08/21 05:02:15;;;;;;;92.30;37.20;;;15.90;99.90;;;;;;5093833;28;20958;-71
2021/08/21 05:04:43;;;;;;;92.23;37.83;;;15.90;99.90;;;;;;5092623;28;20523;-71
2021/08/21 05:07:13;;;;;;;88.80;35.77;;;15.90;99.90;;;;;;5092845;28;20435;-71
2021/08/21 05:09:46;;;;;;;107.37;35.10;;;15.90;99.90;;;;;;5092601;28;20421;-71
2021/08/21 05:12:21;;;;;;;84.00;39.10;;;15.90;99.90;;;;;;5093019;28;20440;-71
2021/08/21 05:15:06;;;;;;;69.73;31.33;;;15.90;99.90;;;;;;5092490;28;20438;-70
2021/08/21 05:17:36;;;;;;;112.50;33.70;;;15.90;99.90;;;;;;5091987;28;20491;-70
2021/08/21 05:20:16;;;;;;;104.07;36.90;;;15.90;99.90;;;;;;5085000;28;20861;-70
2021/08/21 05:23:04;;;;;;;70.70;34.38;;;15.90;99.90;;;;;;5088918;28;20427;-70
2021/08/21 05:25:38;;;;;;;93.37;35.03;;;15.90;99.90;;;;;;5072779;28;20190;-70
2021/08/21 05:28:08;;;;;;;75.43;33.53;;;16.00;99.90;;;;;;5072147;28;20467;-71
2021/08/21 05:30:39;;;;;;;84.73;35.27;;;16.00;99.90;;;;;;5072071;28;20466;-70
2021/08/21 05:33:11;;;;;;;127.97;38.37;;;16.00;99.90;;;;;;5072218;28;20983;-70
2021/08/21 05:35:40;;;;;;;101.27;37.27;;;16.00;99.90;;;;;;5072029;28;20903;-71
2021/08/21 05:38:10;;;;;;;67.30;32.53;;;16.00;99.90;;;;;;5075860;28;20431;-71
2021/08/21 05:40:39;;;;;;;72.23;35.47;;;16.00;99.90;;;;;;5093493;28;20383;-71
2021/08/21 05:43:10;;;;;;;113.37;34.37;;;16.00;99.90;;;;;;5092370;28;20475;-71
2021/08/21 05:45:39;;;;;;;79.73;38.17;;;16.00;99.90;;;;;;5093365;28;20458;-71
2021/08/21 05:48:07;;;;;;;163.57;35.83;;;16.10;99.90;;;;;;5093243;28;20566;-71
2021/08/21 05:50:35;;;;;;;102.17;34.03;;;16.10;99.90;;;;;;5093512;28;20923;-71
2021/08/21 05:53:04;;;;;;;124.97;37.87;;;16.10;99.90;;;;;;5093219;28;20857;-71
2021/08/21 05:55:34;;;;;;;143.47;36.63;;;16.10;99.90;;;;;;5109238;28;20415;-70
2021/08/21 05:58:07;;;;;;;98.27;39.87;;;16.20;99.90;;;;;;5091957;28;20513;-71
2021/08/21 06:00:36;;;;;;;148.50;41.90;;;16.20;99.90;;;;;;5090023;28;20427;-71
2021/08/21 06:03:05;;;;;;;16.02;14.43;;;16.20;99.90;;;;;;5092557;28;20423;-70
2021/08/21 06:05:33;;;;;;;133.97;34.07;;;16.30;99.90;;;;;;5091987;28;20204;-70
2021/08/21 06:08:04;;;;;;;14.30;12.95;;;16.30;99.90;;;;;;5091622;28;20480;-70
2021/08/21 06:10:43;;;;;;;124.83;40.57;;;16.30;99.90;;;;;;5092591;28;20243;-70
2021/08/21 06:13:15;;;;;;;109.87;31.73;;;16.40;99.90;;;;;;5092060;28;20592;-69
2021/08/21 06:15:43;;;;;;;113.23;38.77;;;16.40;99.90;;;;;;5093244;28;20411;-70
2021/08/21 06:18:11;;;;;;;150.33;34.83;;;16.50;99.90;;;;;;5093126;28;20455;-70
2021/08/21 06:20:39;;;;;;;80.53;31.20;;;16.40;99.90;;;;;;5093544;28;20437;-70
2021/08/21 06:23:07;;;;;;;125.43;38.00;;;16.50;99.90;;;;;;5089345;28;20443;-70
2021/08/21 06:25:35;;;;;;;123.20;40.33;;;16.50;99.90;;;;;;5093203;28;20490;-70
2021/08/21 06:28:05;;;;;;;119.13;38.53;;;16.50;99.90;;;;;;5093049;28;20464;-70
2021/08/21 06:30:33;;;;;;;106.23;38.17;;;16.60;99.90;;;;;;5093470;28;20443;-71
2021/08/21 06:33:02;;;;;;;115.83;35.03;;;16.60;99.90;;;;;;5094823;28;20470;-71
2021/08/21 06:35:30;;;;;;;114.27;32.23;;;16.70;99.90;;;;;;5095993;28;20451;-71
2021/08/21 06:37:58;;;;;;;130.37;37.03;;;16.70;99.90;;;;;;5097755;28;20443;-70
2021/08/21 06:40:26;;;;;;;126.77;33.17;;;16.70;99.90;;;;;;5097537;28;20443;-71
2021/08/21 06:42:59;;;;;;;87.57;41.80;;;16.90;99.90;;;;;;5091331;28;21027;-71
2021/08/21 06:45:55;;;;;;;143.40;41.70;;;17.00;99.90;;;;;;5094625;28;20403;-71
2021/08/21 06:48:23;;;;;;;15.03;13.63;;;17.00;99.90;;;;;;5095604;28;20436;-71
2021/08/21 06:50:51;;;;;;;102.87;40.50;;;17.20;99.90;;;;;;5096955;28;20432;-71
2021/08/21 06:53:19;;;;;;;15.80;14.30;;;17.20;99.90;;;;;;5094106;28;20938;-71
2021/08/21 06:55:47;;;;;;;95.70;40.57;;;17.40;99.90;;;;;;5096855;28;20554;-71
2021/08/21 06:58:15;;;;;;;100.13;41.13;;;17.40;99.90;;;;;;5096484;28;20936;-73
2021/08/21 07:00:44;;;;;;;129.17;36.73;;;17.40;99.90;;;;;;5097708;28;20438;-71
2021/08/21 07:03:13;;;;;;;110.13;40.37;;;17.40;99.90;;;;;;5094289;28;20571;-71
2021/08/21 07:05:42;;;;;;;111.20;38.60;;;17.40;99.90;;;;;;5096418;28;20444;-71
2021/08/21 07:08:10;;;;;;;93.60;42.03;;;17.50;99.90;;;;;;5095431;28;20421;-71
2021/08/21 07:10:38;;;;;;;134.10;45.30;;;17.50;99.90;;;;;;5096919;28;20436;-71
2021/08/21 07:13:06;;;;;;;101.33;40.40;;;17.50;99.90;;;;;;5094973;28;20535;-70
2021/08/21 07:15:34;;;;;;;123.47;46.13;;;17.50;99.90;;;;;;5096539;28;20439;-71
2021/08/21 07:18:03;;;;;;;125.47;47.60;;;17.60;99.90;;;;;;5096360;28;20471;-71
2021/08/21 07:20:32;;;;;;;100.70;39.23;;;17.60;99.90;;;;;;5096145;28;20460;-71
2021/08/21 07:23:00;;;;;;;116.40;43.70;;;17.60;99.90;;;;;;5095632;28;20934;-71
2021/08/21 07:25:29;;;;;;;95.80;40.83;;;17.60;99.90;;;;;;5095276;28;20437;-71
2021/08/21 07:27:57;;;;;;;121.50;38.20;;;17.70;99.90;;;;;;5095552;28;20505;-71
2021/08/21 07:30:25;;;;;;;119.28;35.55;;;17.70;99.90;;;;;;5095835;28;20795;-71
2021/08/21 07:32:53;;;;;;;108.40;43.20;;;17.70;99.90;;;;;;5095748;28;20218;-71
2021/08/21 07:35:21;;;;;;;131.43;42.47;;;17.80;99.90;;;;;;5094422;28;20444;-71
2021/08/21 07:37:51;;;;;;;125.60;46.57;;;17.80;99.90;;;;;;5095910;28;20801;-71
2021/08/21 07:40:19;;;;;;;111.27;40.43;;;17.90;99.90;;;;;;5096057;28;20417;-71
2021/08/21 07:42:48;;;;;;;114.70;38.37;;;17.90;99.90;;;;;;5094892;28;20990;-71
2021/08/21 07:45:16;;;;;;;140.47;41.90;;;18.00;99.90;;;;;;5096416;28;20457;-71
2021/08/21 07:47:49;;;;;;;122.47;43.97;;;18.10;99.90;;;;;;5095885;28;20443;-71
2021/08/21 07:50:18;;;;;;;111.97;42.17;;;18.20;99.90;;;;;;5095708;28;20456;-71
2021/08/21 07:52:46;;;;;;;144.17;42.50;;;18.20;99.90;;;;;;5094086;28;20559;-71
2021/08/21 07:55:16;;;;;;;136.90;41.57;;;18.30;99.90;;;;;;5095438;28;20480;-71
2021/08/21 07:57:44;;;;;;;157.40;50.83;;;18.30;99.90;;;;;;5095392;28;20429;-71
2021/08/21 08:00:14;;;;;;;115.63;40.73;;;18.30;99.90;;;;;;5093878;28;20483;-70
2021/08/21 08:02:45;;;;;;;132.53;41.27;;;18.40;99.90;;;;;;5095403;28;20464;-70
2021/08/21 08:05:13;;;;;;;132.00;41.80;;;18.40;99.90;;;;;;5093926;28;20463;-72
2021/08/21 08:07:42;;;;;;;139.63;44.50;;;18.40;99.90;;;;;;5094731;28;20454;-71
2021/08/21 08:10:10;;;;;;;131.97;37.30;;;18.50;99.90;;;;;;5096659;28;20464;-71
2021/08/21 08:12:40;;;;;;;76.50;29.63;;;18.50;99.90;;;;;;5095867;28;20983;-71
2021/08/21 08:15:09;;;;;;;136.83;43.17;;;18.60;99.90;;;;;;5095961;28;20486;-71
2021/08/21 08:17:37;;;;;;;150.30;41.07;;;18.60;99.90;;;;;;5095951;28;20456;-71
2021/08/21 08:20:07;;;;;;;167.93;46.60;;;18.70;99.90;;;;;;5096596;28;20436;-72
2021/08/21 08:22:35;;;;;;;151.77;42.10;;;18.70;99.90;;;;;;5094567;28;20483;-72
2021/08/21 08:25:03;;;;;;;109.57;40.63;;;18.80;99.90;;;;;;5095871;28;20439;-72
2021/08/21 08:27:31;;;;;;;144.60;46.27;;;18.80;99.90;;;;;;5096139;28;20493;-72
2021/08/21 08:30:01;;;;;;;126.37;43.13;;;18.90;99.90;;;;;;5096088;28;20468;-71
2021/08/21 08:32:29;;;;;;;137.13;43.17;;;19.00;99.90;;;;;;5111533;28;21008;-72
2021/08/21 08:34:57;;;;;;;155.20;41.53;;;19.10;99.90;;;;;;5092687;28;20475;-72
2021/08/21 08:37:25;;;;;;;141.83;41.30;;;19.20;99.90;;;;;;5095869;28;20435;-72
2021/08/21 08:39:54;;;;;;;112.90;45.07;;;19.20;99.90;;;;;;5095722;28;20436;-71
2021/08/21 08:42:22;;;;;;;129.57;42.60;;;19.30;99.90;;;;;;5095969;28;20449;-72
2021/08/21 08:44:50;;;;;;;146.43;44.57;;;19.30;99.90;;;;;;5095805;28;20978;-72
2021/08/21 08:47:21;;;;;;;138.23;39.83;;;19.40;99.90;;;;;;5095827;28;20436;-72
2021/08/21 08:49:50;;;;;;;136.67;45.23;;;19.40;99.90;;;;;;5094763;28;20460;-72
2021/08/21 08:52:20;;;;;;;186.30;42.93;;;19.40;99.90;;;;;;5095539;28;21038;-72
2021/08/21 08:54:48;;;;;;;162.33;47.07;;;19.50;99.90;;;;;;5074582;28;20524;-72
2021/08/21 08:57:35;;;;;;;129.20;43.90;;;19.50;99.90;;;;;;5075238;28;20444;-72
2021/08/21 09:00:05;;;;;;;16.25;14.65;;;19.60;99.90;;;;;;5094450;28;20776;-72
2021/08/21 09:02:38;;;;;;;119.43;41.03;;;19.60;99.90;;;;;;5094986;28;20243;-72
2021/08/21 09:05:09;;;;;;;131.83;42.33;;;19.70;99.90;;;;;;5094108;28;20836;-72
2021/08/21 09:07:43;;;;;;;182.67;47.03;;;19.70;99.90;;;;;;5093618;28;20522;-72
2021/08/21 09:10:13;;;;;;;127.17;46.47;;;19.80;99.90;;;;;;5095278;28;20453;-72
2021/08/21 09:12:41;;;;;;;183.67;42.70;;;19.80;99.90;;;;;;5094943;28;20459;-72
2021/08/21 09:15:25;;;;;;;120.60;45.33;;;19.90;99.90;;;;;;5095223;28;20446;-71
2021/08/21 09:18:08;;;;;;;139.40;44.53;;;19.90;99.90;;;;;;5095314;28;20427;-72
2021/08/21 09:20:55;;;;;;;154.33;49.03;;;20.00;99.90;;;;;;5095033;28;20954;-75
2021/08/21 09:23:26;;;;;;;184.40;49.93;;;20.10;99.90;;;;;;5092543;28;20745;-72
2021/08/21 09:25:56;;;;;;;159.17;51.47;;;20.10;99.90;;;;;;5094847;28;20421;-72
2021/08/21 09:28:26;;;;;;;181.60;43.63;;;20.20;99.90;;;;;;5092645;28;20448;-72
2021/08/21 09:31:09;;;;;;;160.93;50.27;;;20.30;99.90;;;;;;5098391;28;20469;-73
2021/08/21 09:33:40;;;;;;;17.17;15.50;;;20.40;99.90;;;;;;5097930;28;20463;-73
2021/08/21 09:36:12;;;;;;;127.10;48.97;;;20.60;99.90;;;;;;5099002;28;20175;-72
2021/08/21 09:38:42;;;;;;;164.13;49.57;;;20.70;99.90;;;;;;5097843;28;20444;-72
2021/08/21 09:41:11;;;;;;;199.13;44.77;;;20.70;99.90;;;;;;5092517;28;20449;-74
2021/08/21 09:43:39;;;;;;;168.27;54.03;;;20.80;99.90;;;;;;5092456;28;20472;-71
2021/08/21 09:46:14;;;;;;;200.27;49.50;;;20.80;99.90;;;;;;5093786;28;20527;-71
2021/08/21 09:49:06;;;;;;;190.70;54.70;;;20.80;99.90;;;;;;5093480;28;20442;-71
2021/08/21 09:51:42;;;;;;;158.60;53.63;;;20.80;99.90;;;;;;5089787;28;20477;-71
2021/08/21 09:54:12;;;;;;;179.83;53.07;;;20.90;99.90;;;;;;5093376;28;20828;-71
2021/08/21 09:56:42;;;;;;;182.43;50.63;;;20.90;99.90;;;;;;5091952;28;20982;-70
2021/08/21 09:59:10;;;;;;;188.23;52.47;;;21.00;99.90;;;;;;5091946;28;20808;-70
2021/08/21 10:01:38;;;;;;;231.87;57.70;;;21.10;99.90;;;;;;5093279;28;20516;-70
2021/08/21 10:04:08;;;;;;;159.40;52.50;;;21.10;99.90;;;;;;5093134;28;20533;-71
2021/08/21 10:06:38;;;;;;;169.43;58.03;;;21.10;99.90;;;;;;5094444;28;20436;-71
2021/08/21 10:09:08;;;;;;;183.57;54.20;;;21.10;99.90;;;;;;5095866;28;20436;-71
2021/08/21 10:11:36;;;;;;;19.40;17.40;;;21.20;99.90;;;;;;5078313;28;20872;-71
2021/08/21 10:14:06;;;;;;;163.33;49.80;;;21.30;99.90;;;;;;5097190;28;20213;-71
2021/08/21 10:16:36;;;;;;;18.75;16.95;;;21.40;99.90;;;;;;5096909;28;20450;-71
2021/08/21 10:19:06;;;;;;;200.07;49.57;;;21.50;99.90;;;;;;5097836;28;20190;-71
2021/08/21 10:21:35;;;;;;;173.47;59.73;;;21.60;99.90;;;;;;5097200;28;20804;-71
2021/08/21 10:24:04;;;;;;;227.87;53.40;;;21.70;99.90;;;;;;5097164;28;20460;-71
2021/08/21 10:26:36;;;;;;;160.27;50.53;;;21.70;99.90;;;;;;5097055;28;20458;-71
2021/08/21 10:29:11;;;;;;;228.40;54.43;;;21.80;99.90;;;;;;5097278;28;20467;-71
2021/08/21 10:31:47;;;;;;;218.03;47.60;;;21.90;99.90;;;;;;5097417;28;20810;-71
2021/08/21 10:34:16;;;;;;;179.07;53.03;;;22.00;99.90;;;;;;5097163;28;20462;-71
2021/08/21 10:36:54;;;;;;;172.13;50.93;;;22.00;99.90;;;;;;5095688;28;20527;-72
2021/08/21 10:39:33;;;;;;;217.13;56.87;;;22.10;99.90;;;;;;5095160;28;20840;-72
2021/08/21 10:42:24;;;;;;;206.27;56.37;;;22.10;99.90;;;;;;5096675;28;20494;-72
2021/08/21 10:44:53;;;;;;;216.13;55.90;;;22.20;99.90;;;;;;5096924;28;20535;-72
2021/08/21 10:47:38;;;;;;;17.98;16.08;;;22.20;99.90;;;;;;5096187;28;20446;-71
2021/08/21 10:50:33;;;;;;;210.77;54.23;;;22.30;99.90;;;;;;5095428;28;20293;-71
2021/08/21 10:53:07;;;;;;;17.25;15.65;;;22.40;99.90;;;;;;5078164;28;20804;-71
2021/08/21 10:55:42;;;;;;;188.23;53.40;;;22.40;99.90;;;;;;5096739;28;20183;-71
2021/08/21 10:58:14;;;;;;;180.80;52.23;;;22.40;99.90;;;;;;5096712;28;20431;-72
2021/08/21 11:00:48;;;;;;;262.33;57.30;;;22.50;99.90;;;;;;5094633;28;20513;-72
2021/08/21 11:03:17;;;;;;;252.43;54.70;;;22.50;99.90;;;;;;5095342;28;20476;-72
2021/08/21 11:05:54;;;;;;;256.47;58.03;;;22.60;99.90;;;;;;5095040;28;20454;-72
2021/08/21 11:08:25;;;;;;;241.50;56.57;;;22.60;99.90;;;;;;5096870;28;20978;-71
2021/08/21 11:11:28;;;;;;;145.90;51.33;;;22.60;99.90;;;;;;5096595;28;20448;-72
2021/08/21 11:14:00;;;;;;;238.70;64.13;;;22.60;99.90;;;;;;5096861;28;20555;-72
2021/08/21 11:16:48;;;;;;;261.10;55.57;;;22.60;99.90;;;;;;5095059;28;20452;-72
2021/08/21 11:19:47;;;;;;;244.80;53.83;;;22.70;99.90;;;;;;5095250;28;20516;-72
2021/08/21 11:22:21;;;;;;;93.22;29.08;;;22.70;99.90;;;;;;5089239;28;20428;-72
2021/08/21 11:25:12;;;;;;;259.80;52.37;;;22.70;99.90;;;;;;5094228;28;20226;-72
2021/08/21 11:27:45;;;;;;;147.05;43.67;;;22.70;99.90;;;;;;5094395;28;20437;-72
2021/08/21 11:30:21;;;;;;;257.57;54.30;;;22.70;99.90;;;;;;5096171;28;20175;-72
2021/08/21 11:32:53;;;;;;;281.13;57.53;;;22.80;99.90;;;;;;5094654;28;20480;-72
2021/08/21 11:35:23;;;;;;;260.33;57.80;;;22.90;99.90;;;;;;5096068;28;20427;-72
2021/08/21 11:37:53;;;;;;;255.07;54.97;;;22.90;99.90;;;;;;5096135;28;20998;-72
2021/08/21 11:40:31;;;;;;;228.03;51.97;;;22.90;99.90;;;;;;5094783;28;20466;-73
2021/08/21 11:43:00;;;;;;;211.43;55.07;;;23.00;99.90;;;;;;5094524;28;20666;-73
2021/08/21 11:45:28;;;;;;;257.00;56.97;;;23.00;99.90;;;;;;5092048;28;20454;-73
2021/08/21 11:47:58;;;;;;;252.80;56.77;;;23.10;99.90;;;;;;5094345;28;20981;-74
2021/08/21 11:50:30;;;;;;;287.20;64.00;;;23.10;99.90;;;;;;5095460;28;20527;-74
2021/08/21 11:53:01;;;;;;;288.63;61.37;;;23.20;99.90;;;;;;5095259;28;20476;-74
2021/08/21 11:55:33;;;;;;;286.43;61.47;;;23.30;99.90;;;;;;5095674;28;20511;-73
2021/08/21 11:58:02;;;;;;;17.23;15.73;;;23.30;99.90;;;;;;5095117;28;20432;-74
2021/08/21 12:00:32;;;;;;;267.77;54.97;;;23.40;99.90;;;;;;5095473;28;20238;-74
2021/08/21 12:03:03;;;;;;;17.48;15.88;;;23.50;99.90;;;;;;5094951;28;20432;-74
2021/08/21 12:05:36;;;;;;;256.57;56.27;;;23.60;99.90;;;;;;5093098;28;20289;-74
2021/08/21 12:08:21;;;;;;;266.93;56.60;;;23.60;99.90;;;;;;5093948;28;20488;-74
2021/08/21 12:10:53;;;;;;;261.43;63.90;;;23.60;99.90;;;;;;5094952;28;20440;-74
2021/08/21 12:13:28;;;;;;;256.33;66.33;;;23.60;99.90;;;;;;5095492;28;20492;-74
2021/08/21 12:15:58;;;;;;;293.90;65.70;;;23.60;99.90;;;;;;5095970;28;20458;-74
2021/08/21 12:18:27;;;;;;;244.63;56.27;;;23.60;99.90;;;;;;5095195;28;20876;-74
2021/08/21 12:20:56;;;;;;;269.43;66.87;;;23.70;99.90;;;;;;5094831;28;20864;-74
2021/08/21 12:23:24;;;;;;;288.67;68.60;;;23.80;99.90;;;;;;5093455;28;20475;-75
2021/08/21 12:25:56;;;;;;;232.33;73.07;;;23.80;99.90;;;;;;5092891;28;20523;-75
2021/08/21 12:28:25;;;;;;;88.90;85.60;;;23.90;99.90;;;;;;5094601;28;20799;-75
2021/08/21 12:30:58;;;;;;;21.13;19.30;;;24.00;99.90;;;;;;5094326;28;20428;-74
2021/08/21 12:33:28;;;;;;;51.07;48.40;;;24.10;99.90;;;;;;5094924;28;20681;-74
2021/08/21 12:35:56;;;;;;;301.27;131.90;;;24.20;99.90;;;;;;5094525;28;20436;-74
2021/08/21 12:38:24;;;;;;;37.27;35.03;;;24.20;99.90;;;;;;5093426;28;20817;-74
2021/08/21 12:41:08;;;;;;;286.77;54.43;;;24.30;99.90;;;;;;5094688;28;20969;-74
2021/08/21 12:43:38;;;;;;;285.73;52.23;;;24.40;99.90;;;;;;5092976;28;21048;-75